createdAt,value
2023-02-19T00:00:03.380Z,985.86
2023-02-19T00:01:03.375Z,985.88
2023-02-19T00:02:03.388Z,985.90
2023-02-19T00:03:03.359Z,985.82
2023-02-19T00:04:03.345Z,985.80
2023-02-19T00:05:03.419Z,985.82
2023-02-19T00:06:03.341Z,985.84
2023-02-19T00:07:03.294Z,985.86
2023-02-19T00:08:03.331Z,985.83
2023-02-19T00:09:03.279Z,985.87
2023-02-19T00:10:03.286Z,985.88
2023-02-19T00:11:03.253Z,985.91
2023-02-19T00:12:03.264Z,985.92
2023-02-19T00:13:03.270Z,985.88
2023-02-19T00:14:03.255Z,985.93
2023-02-19T00:15:03.203Z,985.93
2023-02-19T00:16:03.249Z,985.93
2023-02-19T00:17:03.181Z,985.92
2023-02-19T00:18:03.209Z,985.83
2023-02-19T00:19:03.167Z,985.85
2023-02-19T00:20:03.163Z,985.79
2023-02-19T00:21:03.137Z,985.76
2023-02-19T00:22:03.156Z,985.76
2023-02-19T00:23:03.126Z,985.73
2023-02-19T00:24:03.137Z,985.70
2023-02-19T00:25:03.097Z,985.74
2023-02-19T00:26:17.157Z,985.76
2023-02-19T00:27:03.102Z,985.78
2023-02-19T00:28:03.084Z,985.71
2023-02-19T00:29:03.049Z,985.76
2023-02-19T00:30:03.161Z,985.77
2023-02-19T00:31:03.051Z,985.80
2023-02-19T00:32:03.088Z,985.80
2023-02-19T00:33:03.024Z,985.76
2023-02-19T00:34:03.048Z,985.75
2023-02-19T00:35:02.992Z,985.76
2023-02-19T00:36:03.018Z,985.75
2023-02-19T00:37:02.999Z,985.75
2023-02-19T00:38:02.992Z,985.73
2023-02-19T00:39:02.954Z,985.76
2023-02-19T00:40:02.949Z,985.73
2023-02-19T00:41:02.934Z,985.72
2023-02-19T00:42:02.944Z,985.71
2023-02-19T00:43:02.924Z,985.70
2023-02-19T00:44:02.932Z,985.69
2023-02-19T00:45:02.894Z,985.67
2023-02-19T00:46:02.982Z,985.61
2023-02-19T00:47:02.878Z,985.57
2023-02-19T00:48:02.868Z,985.60
2023-02-19T00:49:02.843Z,985.62
2023-02-19T00:50:02.870Z,985.68
2023-02-19T00:51:02.833Z,985.61
2023-02-19T00:52:02.837Z,985.62
2023-02-19T00:53:02.802Z,985.62
2023-02-19T00:54:02.810Z,985.59
2023-02-19T00:55:02.787Z,985.56
2023-02-19T00:56:02.804Z,985.53
2023-02-19T00:57:02.779Z,985.55
2023-02-19T00:58:02.756Z,985.56
2023-02-19T00:59:02.754Z,985.54
2023-02-19T01:00:02.759Z,985.52
2023-02-19T01:01:02.711Z,985.46
2023-02-19T01:02:02.717Z,985.47
2023-02-19T01:03:02.695Z,985.45
2023-02-19T01:04:04.292Z,985.39
2023-02-19T01:05:02.728Z,985.40
2023-02-19T01:06:02.681Z,985.40
2023-02-19T01:07:02.651Z,985.40
2023-02-19T01:08:02.656Z,985.37
2023-02-19T01:09:02.619Z,985.36
2023-02-19T01:10:02.649Z,985.38
2023-02-19T01:11:02.611Z,985.39
2023-02-19T01:12:02.633Z,985.38
2023-02-19T01:13:02.585Z,985.39
2023-02-19T01:14:02.591Z,985.35
2023-02-19T01:15:02.551Z,985.41
2023-02-19T01:16:02.603Z,985.41
2023-02-19T01:17:02.528Z,985.39
2023-02-19T01:18:02.566Z,985.37
2023-02-19T01:19:02.522Z,985.37
2023-02-19T01:20:02.538Z,985.34
2023-02-19T01:21:02.494Z,985.32
2023-02-19T01:22:02.505Z,985.33
2023-02-19T01:23:02.464Z,985.37
2023-02-19T01:24:02.494Z,985.33
2023-02-19T01:25:02.448Z,985.32
2023-02-19T01:26:02.453Z,985.31
2023-02-19T01:27:02.424Z,985.30
2023-02-19T01:28:02.428Z,985.29
2023-02-19T01:29:02.409Z,985.28
2023-02-19T01:30:02.490Z,985.29
2023-02-19T01:31:02.414Z,985.25
2023-02-19T01:32:02.504Z,985.16
2023-02-19T01:33:02.357Z,985.12
2023-02-19T01:34:02.427Z,985.05
2023-02-19T01:35:02.350Z,985.02
2023-02-19T01:36:02.341Z,984.97
2023-02-19T01:37:02.315Z,984.95
2023-02-19T01:38:02.323Z,984.97
2023-02-19T01:39:02.296Z,984.98
2023-02-19T01:40:02.331Z,985.00
2023-02-19T01:41:02.299Z,984.98
2023-02-19T01:42:02.281Z,984.98
2023-02-19T01:43:02.255Z,984.93
2023-02-19T01:44:02.278Z,984.90
2023-02-19T01:45:02.260Z,984.88
2023-02-19T01:46:02.259Z,984.88
2023-02-19T01:47:02.211Z,984.87
2023-02-19T01:48:02.226Z,984.88
2023-02-19T01:49:02.196Z,984.86
2023-02-19T01:50:02.201Z,984.84
2023-02-19T01:51:02.167Z,984.81
2023-02-19T01:52:02.214Z,984.74
2023-02-19T01:53:02.145Z,984.77
2023-02-19T01:54:02.160Z,984.82
2023-02-19T01:55:02.143Z,984.85
2023-02-19T01:56:02.167Z,984.82
2023-02-19T01:57:02.125Z,984.81
2023-02-19T01:58:02.121Z,984.79
2023-02-19T01:59:02.098Z,984.78
2023-02-19T02:00:02.087Z,984.73
2023-02-19T02:01:02.117Z,984.69
2023-02-19T02:02:02.195Z,984.70
2023-02-19T02:03:02.035Z,984.67
2023-02-19T02:04:02.066Z,984.71
2023-02-19T02:05:02.017Z,984.70
2023-02-19T02:06:02.035Z,984.70
2023-02-19T02:07:02.017Z,984.78
2023-02-19T02:08:02.009Z,984.77
2023-02-19T02:09:01.979Z,984.79
2023-02-19T02:10:01.977Z,984.78
2023-02-19T02:11:01.951Z,984.85
2023-02-19T02:12:01.979Z,984.87
2023-02-19T02:13:01.938Z,984.86
2023-02-19T02:14:01.949Z,984.90
2023-02-19T02:15:01.913Z,984.88
2023-02-19T02:16:01.943Z,984.81
2023-02-19T02:17:01.917Z,984.76
2023-02-19T02:18:01.926Z,984.74
2023-02-19T02:19:01.897Z,984.72
2023-02-19T02:20:01.893Z,984.71
2023-02-19T02:21:01.857Z,984.65
2023-02-19T02:22:01.871Z,984.68
2023-02-19T02:23:01.823Z,984.70
2023-02-19T02:24:01.839Z,984.67
2023-02-19T02:25:01.821Z,984.64
2023-02-19T02:26:01.831Z,984.59
2023-02-19T02:27:01.785Z,984.66
2023-02-19T02:28:01.816Z,984.72
2023-02-19T02:29:01.760Z,984.72
2023-02-19T02:30:01.805Z,984.65
2023-02-19T02:31:01.757Z,984.61
2023-02-19T02:32:01.918Z,984.60
2023-02-19T02:33:01.721Z,984.56
2023-02-19T02:34:01.760Z,984.52
2023-02-19T02:35:01.701Z,984.57
2023-02-19T02:36:01.704Z,984.57
2023-02-19T02:37:01.679Z,984.57
2023-02-19T02:38:01.716Z,984.59
2023-02-19T02:39:01.652Z,984.59
2023-02-19T02:40:01.691Z,984.57
2023-02-19T02:41:01.632Z,984.54
2023-02-19T02:42:01.635Z,984.54
2023-02-19T02:43:01.611Z,984.53
2023-02-19T02:44:01.631Z,984.50
2023-02-19T02:45:01.592Z,984.51
2023-02-19T02:46:01.668Z,984.53
2023-02-19T02:47:01.583Z,984.51
2023-02-19T02:48:01.579Z,984.39
2023-02-19T02:49:01.543Z,984.40
2023-02-19T02:50:01.563Z,984.40
2023-02-19T02:51:01.524Z,984.45
2023-02-19T02:52:01.556Z,984.43
2023-02-19T02:53:01.511Z,984.46
2023-02-19T02:54:01.510Z,984.49
2023-02-19T02:55:02.735Z,984.44
2023-02-19T02:56:01.482Z,984.42
2023-02-19T02:57:01.470Z,984.35
2023-02-19T02:58:01.480Z,984.36
2023-02-19T02:59:01.458Z,984.37
2023-02-19T03:00:01.441Z,984.42
2023-02-19T03:01:01.434Z,984.38
2023-02-19T03:02:01.469Z,984.31
2023-02-19T03:03:01.391Z,984.35
2023-02-19T03:04:01.408Z,984.35
2023-02-19T03:05:01.383Z,984.34
2023-02-19T03:06:01.417Z,984.33
2023-02-19T03:07:01.357Z,984.33
2023-02-19T03:08:01.366Z,984.37
2023-02-19T03:09:01.337Z,984.30
2023-02-19T03:10:01.354Z,984.28
2023-02-19T03:11:01.307Z,984.27
2023-02-19T03:12:01.315Z,984.27
2023-02-19T03:13:01.302Z,984.32
2023-02-19T03:14:01.290Z,984.23
2023-02-19T03:15:01.266Z,984.31
2023-02-19T03:16:01.283Z,984.32
2023-02-19T03:17:01.242Z,984.31
2023-02-19T03:18:01.253Z,984.31
2023-02-19T03:19:01.228Z,984.29
2023-02-19T03:20:01.223Z,984.32
2023-02-19T03:21:01.195Z,984.27
2023-02-19T03:22:01.205Z,984.27
2023-02-19T03:23:01.174Z,984.27
2023-02-19T03:24:01.191Z,984.29
2023-02-19T03:25:01.152Z,984.27
2023-02-19T03:26:01.172Z,984.28
2023-02-19T03:27:01.139Z,984.29
2023-02-19T03:28:01.161Z,984.28
2023-02-19T03:29:01.122Z,984.25
2023-02-19T03:30:01.157Z,984.27
2023-02-19T03:31:01.108Z,984.21
2023-02-19T03:32:01.175Z,984.23
2023-02-19T03:33:01.080Z,984.24
2023-02-19T03:34:01.082Z,984.20
2023-02-19T03:35:01.066Z,984.27
2023-02-19T03:36:01.083Z,984.21
2023-02-19T03:37:01.025Z,984.18
2023-02-19T03:38:01.038Z,984.25
2023-02-19T03:39:01.001Z,984.23
2023-02-19T03:40:01.021Z,984.22
2023-02-19T03:41:00.999Z,984.16
2023-02-19T03:42:00.997Z,984.15
2023-02-19T03:43:00.954Z,984.08
2023-02-19T03:44:00.973Z,984.05
2023-02-19T03:45:00.952Z,984.09
2023-02-19T03:46:00.988Z,984.07
2023-02-19T03:47:00.911Z,984.07
2023-02-19T03:48:00.915Z,984.09
2023-02-19T03:49:00.892Z,984.11
2023-02-19T03:50:00.934Z,984.13
2023-02-19T03:51:00.881Z,984.10
2023-02-19T03:52:00.874Z,984.10
2023-02-19T03:53:00.853Z,984.11
2023-02-19T03:54:00.868Z,984.08
2023-02-19T03:55:00.832Z,984.13
2023-02-19T03:56:00.876Z,984.07
2023-02-19T03:57:00.867Z,984.10
2023-02-19T03:58:00.842Z,984.11
2023-02-19T03:59:00.809Z,984.09
2023-02-19T04:00:00.813Z,984.05
2023-02-19T04:01:00.779Z,984.08
2023-02-19T04:02:00.786Z,984.05
2023-02-19T04:03:00.766Z,984.09
2023-02-19T04:04:00.768Z,984.15
2023-02-19T04:05:00.751Z,984.10
2023-02-19T04:06:00.731Z,984.08
2023-02-19T04:07:00.748Z,984.11
2023-02-19T04:08:00.701Z,984.11
2023-02-19T04:09:00.697Z,984.18
2023-02-19T04:10:00.678Z,984.18
2023-02-19T04:11:00.673Z,984.16
2023-02-19T04:12:00.667Z,984.16
2023-02-19T04:13:00.700Z,984.19
2023-02-19T04:14:00.637Z,984.16
2023-02-19T04:15:00.647Z,984.18
2023-02-19T04:16:00.617Z,984.22
2023-02-19T04:17:00.629Z,984.25
2023-02-19T04:18:00.608Z,984.26
2023-02-19T04:19:00.589Z,984.24
2023-02-19T04:20:00.578Z,984.27
2023-02-19T04:21:00.569Z,984.29
2023-02-19T04:22:00.548Z,984.32
2023-02-19T04:23:00.547Z,984.28
2023-02-19T04:24:00.532Z,984.26
2023-02-19T04:25:00.532Z,984.17
2023-02-19T04:26:00.509Z,984.18
2023-02-19T04:27:00.523Z,984.14
2023-02-19T04:28:00.497Z,984.10
2023-02-19T04:29:00.479Z,984.10
2023-02-19T04:30:00.504Z,984.11
2023-02-19T04:31:00.532Z,984.12
2023-02-19T04:32:00.505Z,984.18
2023-02-19T04:33:00.458Z,984.15
2023-02-19T04:34:00.408Z,984.16
2023-02-19T04:35:00.442Z,984.16
2023-02-19T04:36:00.400Z,984.19
2023-02-19T04:37:00.397Z,984.15
2023-02-19T04:38:00.361Z,984.20
2023-02-19T04:39:00.399Z,984.21
2023-02-19T04:40:00.370Z,984.21
2023-02-19T04:41:00.356Z,984.15
2023-02-19T04:42:00.320Z,984.14
2023-02-19T04:43:00.335Z,984.14
2023-02-19T04:44:00.303Z,984.21
2023-02-19T04:45:00.315Z,984.17
2023-02-19T04:46:00.323Z,984.20
2023-02-19T04:47:00.286Z,984.22
2023-02-19T04:48:00.264Z,984.31
2023-02-19T04:49:00.289Z,984.27
2023-02-19T04:50:00.240Z,984.27
2023-02-19T04:51:00.264Z,984.36
2023-02-19T04:52:00.226Z,984.33
2023-02-19T04:53:00.229Z,984.36
2023-02-19T04:54:00.203Z,984.39
2023-02-19T04:55:00.209Z,984.35
2023-02-19T04:56:00.181Z,984.40
2023-02-19T04:57:00.165Z,984.41
2023-02-19T04:58:00.146Z,984.42
2023-02-19T04:59:00.162Z,984.36
2023-02-19T05:00:00.164Z,984.37
2023-02-19T05:01:00.197Z,984.34
2023-02-19T05:02:00.131Z,984.32
2023-02-19T05:03:00.113Z,984.35
2023-02-19T05:04:00.099Z,984.36
2023-02-19T05:05:00.091Z,984.34
2023-02-19T05:06:00.083Z,984.32
2023-02-19T05:07:00.101Z,984.32
2023-02-19T05:08:00.043Z,984.31
2023-02-19T05:09:06.586Z,984.31
2023-02-19T05:10:00.008Z,984.32
2023-02-19T05:11:00.031Z,984.27
2023-02-19T05:11:59.997Z,984.28
2023-02-19T05:13:00.013Z,984.26
2023-02-19T05:13:59.973Z,984.21
2023-02-19T05:14:59.999Z,984.23
2023-02-19T05:16:00.049Z,984.27
2023-02-19T05:16:59.950Z,984.28
2023-02-19T05:17:59.941Z,984.29
2023-02-19T05:18:59.943Z,984.26
2023-02-19T05:19:59.904Z,984.32
2023-02-19T05:20:59.907Z,984.27
2023-02-19T05:21:59.895Z,984.27
2023-02-19T05:22:59.909Z,984.29
2023-02-19T05:23:59.864Z,984.28
2023-02-19T05:24:59.877Z,984.25
2023-02-19T05:25:59.879Z,984.25
2023-02-19T05:26:59.873Z,984.26
2023-02-19T05:27:59.816Z,984.18
2023-02-19T05:28:59.832Z,984.27
2023-02-19T05:29:59.862Z,984.21
2023-02-19T05:30:59.832Z,984.23
2023-02-19T05:31:59.800Z,984.23
2023-02-19T05:32:59.802Z,984.25
2023-02-19T05:33:59.755Z,984.20
2023-02-19T05:34:59.758Z,984.17
2023-02-19T05:35:59.744Z,984.20
2023-02-19T05:36:59.770Z,984.18
2023-02-19T05:37:59.713Z,984.19
2023-02-19T05:38:59.731Z,984.28
2023-02-19T05:39:59.695Z,984.20
2023-02-19T05:40:59.717Z,984.21
2023-02-19T05:41:59.666Z,984.27
2023-02-19T05:42:59.684Z,984.25
2023-02-19T05:43:59.646Z,984.27
2023-02-19T05:44:59.650Z,984.31
2023-02-19T05:45:59.623Z,984.35
2023-02-19T05:46:59.651Z,984.40
2023-02-19T05:47:59.602Z,984.37
2023-02-19T05:48:59.624Z,984.43
2023-02-19T05:49:59.602Z,984.45
2023-02-19T05:50:59.608Z,984.46
2023-02-19T05:51:59.563Z,984.46
2023-02-19T05:52:59.560Z,984.45
2023-02-19T05:53:59.539Z,984.50
2023-02-19T05:54:59.553Z,984.52
2023-02-19T05:55:59.527Z,984.49
2023-02-19T05:56:59.553Z,984.55
2023-02-19T05:57:59.489Z,984.53
2023-02-19T05:58:59.514Z,984.55
2023-02-19T05:59:59.417Z,984.54
2023-02-19T06:00:59.489Z,984.49
2023-02-19T06:01:59.413Z,984.46
2023-02-19T06:02:59.437Z,984.50
2023-02-19T06:03:59.525Z,984.54
2023-02-19T06:04:59.439Z,984.50
2023-02-19T06:05:59.365Z,984.49
2023-02-19T06:06:59.386Z,984.52
2023-02-19T06:07:59.331Z,984.53
2023-02-19T06:08:59.361Z,984.48
2023-02-19T06:09:59.342Z,984.53
2023-02-19T06:10:59.314Z,984.47
2023-02-19T06:11:59.288Z,984.51
2023-02-19T06:12:59.306Z,984.56
2023-02-19T06:13:59.270Z,984.57
2023-02-19T06:14:59.283Z,984.61
2023-02-19T06:15:59.286Z,984.59
2023-02-19T06:16:59.274Z,984.60
2023-02-19T06:17:59.226Z,984.62
2023-02-19T06:18:59.239Z,984.63
2023-02-19T06:19:59.199Z,984.64
2023-02-19T06:20:59.213Z,984.67
2023-02-19T06:21:59.183Z,984.66
2023-02-19T06:22:59.197Z,984.65
2023-02-19T06:23:59.175Z,984.66
2023-02-19T06:24:59.165Z,984.67
2023-02-19T06:25:59.148Z,984.71
2023-02-19T06:26:59.163Z,984.79
2023-02-19T06:27:59.130Z,984.73
2023-02-19T06:28:59.133Z,984.73
2023-02-19T06:29:59.111Z,984.76
2023-02-19T06:30:59.117Z,984.79
2023-02-19T06:31:59.150Z,984.75
2023-02-19T06:32:59.080Z,984.83
2023-02-19T06:33:59.063Z,984.82
2023-02-19T06:34:59.056Z,984.81
2023-02-19T06:35:59.032Z,984.87
2023-02-19T06:36:59.045Z,984.85
2023-02-19T06:37:59.023Z,984.91
2023-02-19T06:38:59.036Z,984.87
2023-02-19T06:39:58.993Z,984.92
2023-02-19T06:40:58.992Z,984.93
2023-02-19T06:41:58.988Z,984.92
2023-02-19T06:42:58.987Z,984.93
2023-02-19T06:43:58.946Z,984.88
2023-02-19T06:44:58.975Z,984.99
2023-02-19T06:45:58.954Z,985.02
2023-02-19T06:46:58.946Z,984.97
2023-02-19T06:47:58.904Z,984.97
2023-02-19T06:48:58.926Z,985.02
2023-02-19T06:49:58.894Z,985.00
2023-02-19T06:50:58.925Z,985.07
2023-02-19T06:51:58.863Z,984.99
2023-02-19T06:52:58.878Z,985.02
2023-02-19T06:53:58.856Z,985.03
2023-02-19T06:54:58.845Z,985.03
2023-02-19T06:55:58.841Z,985.09
2023-02-19T06:56:58.888Z,985.08
2023-02-19T06:57:58.834Z,985.10
2023-02-19T06:58:58.859Z,985.13
2023-02-19T06:59:58.773Z,985.11
2023-02-19T07:00:58.805Z,985.13
2023-02-19T07:01:58.774Z,985.13
2023-02-19T07:02:58.765Z,985.14
2023-02-19T07:03:58.792Z,985.11
2023-02-19T07:04:58.770Z,985.14
2023-02-19T07:05:58.711Z,985.09
2023-02-19T07:06:58.726Z,985.15
2023-02-19T07:07:58.685Z,985.15
2023-02-19T07:08:58.705Z,985.10
2023-02-19T07:09:58.673Z,985.09
2023-02-19T07:10:58.683Z,985.12
2023-02-19T07:11:58.646Z,985.07
2023-02-19T07:12:58.682Z,985.10
2023-02-19T07:13:58.659Z,985.12
2023-02-19T07:14:58.643Z,985.11
2023-02-19T07:15:58.622Z,985.18
2023-02-19T07:16:58.629Z,985.19
2023-02-19T07:17:58.576Z,985.19
2023-02-19T07:18:58.594Z,985.21
2023-02-19T07:19:58.561Z,985.23
2023-02-19T07:20:58.558Z,985.24
2023-02-19T07:21:58.568Z,985.29
2023-02-19T07:22:58.549Z,985.30
2023-02-19T07:23:58.514Z,985.26
2023-02-19T07:24:58.528Z,985.29
2023-02-19T07:25:58.493Z,985.29
2023-02-19T07:26:58.505Z,985.32
2023-02-19T07:27:58.462Z,985.34
2023-02-19T07:28:58.490Z,985.38
2023-02-19T07:29:58.480Z,985.40
2023-02-19T07:30:58.490Z,985.36
2023-02-19T07:31:58.513Z,985.39
2023-02-19T07:32:58.425Z,985.39
2023-02-19T07:33:58.397Z,985.44
2023-02-19T07:34:58.423Z,985.42
2023-02-19T07:35:58.389Z,985.43
2023-02-19T07:36:58.419Z,985.44
2023-02-19T07:37:58.377Z,985.48
2023-02-19T07:38:58.376Z,985.48
2023-02-19T07:39:58.337Z,985.47
2023-02-19T07:40:58.339Z,985.49
2023-02-19T07:41:58.338Z,985.48
2023-02-19T07:42:58.338Z,985.49
2023-02-19T07:43:58.300Z,985.49
2023-02-19T07:45:00.550Z,985.47
2023-02-19T07:45:58.285Z,985.49
2023-02-19T07:46:58.346Z,985.51
2023-02-19T07:47:58.260Z,985.54
2023-02-19T07:48:58.280Z,985.50
2023-02-19T07:49:58.231Z,985.51
2023-02-19T07:50:58.248Z,985.44
2023-02-19T07:51:58.211Z,985.48
2023-02-19T07:52:58.243Z,985.50
2023-02-19T07:53:58.194Z,985.44
2023-02-19T07:54:58.204Z,985.51
2023-02-19T07:55:58.172Z,985.44
2023-02-19T07:56:58.181Z,985.43
2023-02-19T07:57:58.170Z,985.46
2023-02-19T07:58:58.158Z,985.45
2023-02-19T07:59:58.122Z,985.49
2023-02-19T08:00:58.160Z,985.50
2023-02-19T08:01:58.103Z,985.49
2023-02-19T08:02:58.132Z,985.47
2023-02-19T08:03:58.089Z,985.42
2023-02-19T08:04:58.087Z,985.48
2023-02-19T08:05:58.073Z,985.36
2023-02-19T08:06:58.076Z,985.44
2023-02-19T08:07:58.046Z,985.39
2023-02-19T08:08:58.061Z,985.50
2023-02-19T08:09:58.026Z,985.50
2023-02-19T08:10:58.021Z,985.51
2023-02-19T08:11:58.009Z,985.57
2023-02-19T08:12:58.017Z,985.51
2023-02-19T08:13:57.988Z,985.62
2023-02-19T08:14:57.997Z,985.58
2023-02-19T08:16:10.888Z,985.58
2023-02-19T08:16:57.984Z,985.65
2023-02-19T08:17:57.929Z,985.67
2023-02-19T08:18:57.930Z,985.67
2023-02-19T08:19:57.920Z,985.75
2023-02-19T08:20:57.903Z,985.74
2023-02-19T08:21:57.911Z,985.73
2023-02-19T08:22:57.881Z,985.76
2023-02-19T08:23:57.876Z,985.72
2023-02-19T08:24:57.854Z,985.79
2023-02-19T08:25:57.875Z,985.69
2023-02-19T08:26:57.961Z,985.82
2023-02-19T08:27:57.848Z,985.73
2023-02-19T08:28:57.810Z,985.83
2023-02-19T08:29:57.836Z,985.83
2023-02-19T08:30:57.817Z,985.84
2023-02-19T08:31:57.858Z,985.86
2023-02-19T08:32:57.764Z,985.92
2023-02-19T08:33:57.788Z,985.84
2023-02-19T08:34:57.756Z,985.90
2023-02-19T08:35:57.761Z,985.91
2023-02-19T08:36:57.745Z,985.88
2023-02-19T08:37:57.735Z,985.91
2023-02-19T08:38:57.713Z,985.95
2023-02-19T08:39:57.724Z,985.97
2023-02-19T08:40:57.706Z,985.95
2023-02-19T08:41:57.694Z,985.97
2023-02-19T08:42:57.659Z,985.98
2023-02-19T08:43:57.672Z,985.96
2023-02-19T08:44:57.634Z,986.04
2023-02-19T08:45:57.678Z,986.03
2023-02-19T08:46:57.637Z,986.04
2023-02-19T08:47:57.642Z,986.03
2023-02-19T08:48:57.588Z,986.10
2023-02-19T08:49:57.593Z,986.05
2023-02-19T08:50:57.571Z,986.10
2023-02-19T08:51:57.572Z,986.16
2023-02-19T08:52:57.555Z,986.09
2023-02-19T08:53:57.559Z,986.18
2023-02-19T08:54:57.526Z,986.13
2023-02-19T08:55:57.525Z,986.12
2023-02-19T08:56:57.501Z,986.20
2023-02-19T08:57:57.540Z,986.18
2023-02-19T08:58:57.480Z,986.28
2023-02-19T08:59:57.497Z,986.26
2023-02-19T09:00:57.474Z,986.16
2023-02-19T09:01:57.474Z,986.20
2023-02-19T09:02:57.444Z,986.22
2023-02-19T09:03:57.584Z,986.26
2023-02-19T09:04:57.412Z,986.24
2023-02-19T09:05:57.444Z,986.23
2023-02-19T09:06:57.396Z,986.26
2023-02-19T09:07:57.416Z,986.19
2023-02-19T09:08:57.381Z,986.23
2023-02-19T09:09:57.375Z,986.24
2023-02-19T09:10:57.349Z,986.30
2023-02-19T09:11:57.365Z,986.34
2023-02-19T09:12:57.340Z,986.38
2023-02-19T09:13:57.362Z,986.39
2023-02-19T09:14:57.305Z,986.40
2023-02-19T09:15:57.429Z,986.37
2023-02-19T09:16:57.286Z,986.40
2023-02-19T09:17:57.286Z,986.47
2023-02-19T09:18:57.298Z,986.44
2023-02-19T09:19:57.288Z,986.43
2023-02-19T09:20:57.242Z,986.49
2023-02-19T09:21:57.248Z,986.46
2023-02-19T09:22:57.228Z,986.47
2023-02-19T09:23:57.225Z,986.51
2023-02-19T09:24:57.210Z,986.49
2023-02-19T09:25:57.205Z,986.57
2023-02-19T09:26:57.181Z,986.55
2023-02-19T09:27:57.187Z,986.59
2023-02-19T09:28:57.157Z,986.56
2023-02-19T09:29:57.164Z,986.57
2023-02-19T09:30:57.211Z,986.63
2023-02-19T09:31:57.156Z,986.71
2023-02-19T09:32:57.122Z,986.70
2023-02-19T09:33:57.117Z,986.71
2023-02-19T09:34:57.102Z,986.69
2023-02-19T09:35:57.108Z,986.73
2023-02-19T09:36:57.074Z,986.79
2023-02-19T09:37:57.089Z,986.71
2023-02-19T09:38:57.067Z,986.77
2023-02-19T09:39:57.085Z,986.82
2023-02-19T09:40:57.048Z,986.72
2023-02-19T09:41:57.045Z,986.79
2023-02-19T09:42:57.022Z,986.79
2023-02-19T09:43:57.021Z,986.72
2023-02-19T09:44:56.984Z,986.76
2023-02-19T09:45:57.056Z,986.77
2023-02-19T09:46:56.960Z,986.69
2023-02-19T09:47:56.964Z,986.76
2023-02-19T09:48:56.944Z,986.73
2023-02-19T09:49:56.965Z,986.76
2023-02-19T09:50:56.918Z,986.75
2023-02-19T09:51:56.934Z,986.82
2023-02-19T09:52:56.899Z,986.79
2023-02-19T09:53:56.918Z,986.81
2023-02-19T09:54:57.288Z,986.83
2023-02-19T09:55:56.902Z,986.81
2023-02-19T09:56:56.873Z,986.81
2023-02-19T09:57:56.872Z,986.82
2023-02-19T09:58:56.839Z,986.83
2023-02-19T09:59:56.846Z,986.86
2023-02-19T10:00:56.836Z,986.79
2023-02-19T10:01:56.869Z,986.81
2023-02-19T10:02:56.807Z,986.83
2023-02-19T10:03:56.815Z,986.82
2023-02-19T10:04:56.805Z,986.81
2023-02-19T10:05:56.795Z,986.82
2023-02-19T10:06:56.742Z,986.84
2023-02-19T10:07:56.744Z,986.83
2023-02-19T10:08:56.735Z,986.84
2023-02-19T10:09:56.724Z,986.80
2023-02-19T10:10:56.701Z,986.85
2023-02-19T10:11:56.714Z,986.83
2023-02-19T10:12:56.689Z,986.81
2023-02-19T10:13:56.699Z,986.81
2023-02-19T10:14:56.658Z,986.88
2023-02-19T10:15:56.695Z,986.81
2023-02-19T10:16:56.633Z,986.87
2023-02-19T10:17:56.649Z,986.85
2023-02-19T10:18:56.622Z,986.86
2023-02-19T10:19:56.620Z,986.90
2023-02-19T10:20:56.593Z,986.92
2023-02-19T10:21:56.616Z,986.91
2023-02-19T10:22:56.571Z,986.92
2023-02-19T10:23:56.589Z,986.99
2023-02-19T10:24:56.545Z,986.99
2023-02-19T10:25:56.562Z,987.02
2023-02-19T10:26:56.523Z,987.00
2023-02-19T10:27:56.540Z,987.02
2023-02-19T10:28:56.516Z,987.02
2023-02-19T10:29:56.522Z,987.09
2023-02-19T10:30:56.535Z,987.05
2023-02-19T10:31:56.580Z,987.07
2023-02-19T10:32:56.462Z,987.08
2023-02-19T10:33:56.474Z,987.06
2023-02-19T10:34:56.459Z,987.06
2023-02-19T10:35:56.445Z,987.09
2023-02-19T10:36:56.422Z,987.03
2023-02-19T10:37:56.437Z,987.17
2023-02-19T10:38:56.395Z,987.07
2023-02-19T10:39:56.403Z,987.05
2023-02-19T10:40:56.389Z,987.10
2023-02-19T10:41:56.396Z,987.11
2023-02-19T10:42:56.357Z,987.14
2023-02-19T10:43:56.375Z,987.14
2023-02-19T10:44:56.349Z,987.18
2023-02-19T10:45:56.349Z,987.10
2023-02-19T10:46:56.326Z,987.22
2023-02-19T10:47:56.320Z,987.25
2023-02-19T10:48:56.302Z,987.24
2023-02-19T10:49:56.352Z,987.26
2023-02-19T10:50:56.271Z,987.32
2023-02-19T10:51:56.294Z,987.35
2023-02-19T10:52:56.248Z,987.36
2023-02-19T10:53:56.259Z,987.31
2023-02-19T10:54:56.241Z,987.33
2023-02-19T10:55:56.240Z,987.33
2023-02-19T10:56:56.211Z,987.33
2023-02-19T10:57:56.208Z,987.37
2023-02-19T10:58:56.183Z,987.34
2023-02-19T10:59:56.184Z,987.37
2023-02-19T11:00:56.164Z,987.37
2023-02-19T11:01:56.290Z,987.42
2023-02-19T11:02:56.148Z,987.40
2023-02-19T11:03:56.142Z,987.41
2023-02-19T11:04:56.133Z,987.44
2023-02-19T11:05:56.156Z,987.44
2023-02-19T11:06:56.092Z,987.43
2023-02-19T11:07:56.115Z,987.42
2023-02-19T11:08:56.074Z,987.43
2023-02-19T11:09:56.116Z,987.49
2023-02-19T11:10:56.062Z,987.51
2023-02-19T11:11:56.059Z,987.51
2023-02-19T11:12:56.028Z,987.51
2023-02-19T11:13:56.052Z,987.51
2023-02-19T11:14:56.004Z,987.51
2023-02-19T11:15:56.056Z,987.53
2023-02-19T11:16:55.992Z,987.54
2023-02-19T11:17:56.022Z,987.54
2023-02-19T11:18:57.143Z,987.52
2023-02-19T11:19:55.978Z,987.56
2023-02-19T11:20:55.965Z,987.57
2023-02-19T11:21:55.945Z,987.61
2023-02-19T11:22:55.920Z,987.64
2023-02-19T11:23:55.951Z,987.62
2023-02-19T11:24:59.131Z,987.61
2023-02-19T11:25:55.918Z,987.64
2023-02-19T11:26:55.879Z,987.65
2023-02-19T11:27:55.894Z,987.68
2023-02-19T11:28:55.854Z,987.62
2023-02-19T11:29:55.878Z,987.67
2023-02-19T11:30:55.842Z,987.64
2023-02-19T11:31:55.953Z,987.69
2023-02-19T11:32:55.813Z,987.69
2023-02-19T11:33:55.812Z,987.72
2023-02-19T11:34:55.812Z,987.67
2023-02-19T11:35:55.813Z,987.69
2023-02-19T11:36:55.767Z,987.63
2023-02-19T11:37:55.788Z,987.64
2023-02-19T11:38:55.755Z,987.68
2023-02-19T11:39:55.753Z,987.68
2023-02-19T11:40:55.752Z,987.64
2023-02-19T11:41:55.767Z,987.68
2023-02-19T11:42:55.714Z,987.67
2023-02-19T11:43:55.725Z,987.65
2023-02-19T11:44:55.688Z,987.72
2023-02-19T11:45:55.714Z,987.68
2023-02-19T11:46:55.663Z,987.68
2023-02-19T11:47:55.690Z,987.68
2023-02-19T11:48:55.645Z,987.73
2023-02-19T11:49:55.653Z,987.71
2023-02-19T11:50:55.636Z,987.70
2023-02-19T11:51:55.641Z,987.73
2023-02-19T11:52:55.611Z,987.77
2023-02-19T11:53:55.617Z,987.70
2023-02-19T11:54:55.581Z,987.69
2023-02-19T11:55:55.600Z,987.80
2023-02-19T11:56:55.573Z,987.78
2023-02-19T11:57:55.569Z,987.75
2023-02-19T11:58:55.538Z,987.77
2023-02-19T11:59:55.537Z,987.73
2023-02-19T12:00:55.516Z,987.77
2023-02-19T12:01:55.543Z,987.80
2023-02-19T12:02:55.505Z,987.78
2023-02-19T12:03:55.509Z,987.79
2023-02-19T12:04:55.490Z,987.78
2023-02-19T12:05:55.476Z,987.84
2023-02-19T12:06:55.450Z,987.83
2023-02-19T12:07:55.465Z,987.85
2023-02-19T12:08:55.428Z,987.84
2023-02-19T12:09:55.454Z,987.88
2023-02-19T12:10:55.404Z,987.90
2023-02-19T12:11:55.407Z,987.91
2023-02-19T12:12:55.381Z,987.90
2023-02-19T12:13:55.409Z,987.95
2023-02-19T12:14:55.358Z,987.98
2023-02-19T12:16:55.334Z,987.98
2023-02-19T12:17:55.338Z,987.99
2023-02-19T12:18:55.329Z,987.98
2023-02-19T12:19:55.342Z,987.96
2023-02-19T12:20:55.292Z,987.93
2023-02-19T12:21:55.312Z,987.91
2023-02-19T12:22:55.269Z,987.88
2023-02-19T12:23:55.272Z,987.85
2023-02-19T12:24:55.266Z,987.83
2023-02-19T12:25:55.272Z,987.87
2023-02-19T12:26:55.226Z,987.81
2023-02-19T12:27:55.247Z,987.82
2023-02-19T12:28:55.204Z,987.81